Caribbean Ferry — WDD3415 — position and weather

sailwx.info

Track history (hours):
 
Tides and Currents Weather Stations Pressure Air Temp Water Temp Dewpoint Dewpoint Depression Visibility Wind Speed Wind Dir Waves Ship Positions

Caribbean Ferry

Owner: Cross Sound Ferry Services,Inc., New London, CT. More information available from US FCC via Universal Licensing System and Coast Guard Vessel Documentation Center.

Last reported at 2017-Oct-01 21:16 UTC. Time now 2017-Oct-19 12:57 UTC.
Position N 41°13' W 072°11'.
Warning: this ship's position is 17 days out of date.

Length 36 m; draft 1.8 m.

Type: Passenger vessel. MMSI: 367130960.

Date/timePositionNaut miles runAvg speedWind from/ knotsBaromVisibWave heightAir tempDewpointWater temp
2017-Oct-01 21:16N 41°13' W 072°11'2 0.2
2017-Oct-01 13:29N 41°12' W 072°12'0 0.0
2017-Sep-29 21:28N 41°12' W 072°13'2 0.4
2017-Sep-29 17:38N 41°11' W 072°13'211.7
2017-Sep-29 17:30N 41°12' W 072°12'1 0.1
2017-Sep-29 13:37N 41°12' W 072°13'2 9.0
2017-Sep-29 13:24N 41°13' W 072°11'  
2017-Sep-24 21:32N 41°12' W 072°12'0 9.9
2017-Sep-24 21:29N 41°12' W 072°12'2 1.0
2017-Sep-24 19:02N 41°14' W 072°10'111.6
2017-Sep-24 18:59N 41°13' W 072°10'5 3.7
2017-Sep-24 17:44N 41°09' W 072°13'310.9
2017-Sep-24 17:30N 41°12' W 072°13'0 0.1
2017-Sep-24 13:32N 41°12' W 072°13'  
Track history (hours):
 
Tides and Currents Weather Stations Pressure Air Temp Water Temp Dewpoint Dewpoint Depression Visibility Wind Speed Wind Dir Waves Ship Positions

Caribbean Ferry

Owner: Cross Sound Ferry Services,Inc., New London, CT. More information available from US FCC via Universal Licensing System and Coast Guard Vessel Documentation Center.

Last reported at 2017-Oct-01 21:16 UTC. Time now 2017-Oct-19 12:57 UTC.
Position N 41°13' W 072°11'.
Warning: this ship's position is 17 days out of date.

Length 36 m; draft 1.8 m.

Type: Passenger vessel. MMSI: 367130960.

Date/timePositionNaut miles runAvg speedWind from/ knotsBaromVisibWave heightAir tempDewpointWater temp
2017-Oct-01 21:16N 41°13' W 072°11'2 0.2
2017-Oct-01 13:29N 41°12' W 072°12'0 0.0
2017-Sep-29 21:28N 41°12' W 072°13'2 0.4
2017-Sep-29 17:38N 41°11' W 072°13'211.7
2017-Sep-29 17:30N 41°12' W 072°12'1 0.1
2017-Sep-29 13:37N 41°12' W 072°13'2 9.0
2017-Sep-29 13:24N 41°13' W 072°11'  
2017-Sep-24 21:32N 41°12' W 072°12'0 9.9
2017-Sep-24 21:29N 41°12' W 072°12'2 1.0
2017-Sep-24 19:02N 41°14' W 072°10'111.6
2017-Sep-24 18:59N 41°13' W 072°10'5 3.7
2017-Sep-24 17:44N 41°09' W 072°13'310.9
2017-Sep-24 17:30N 41°12' W 072°13'0 0.1
2017-Sep-24 13:32N 41°12' W 072°13'  

Dump ship's entire track history